KVEL/VEL METAR and TAF weather

Enter ICAO airport designator
Station Type Date Time Source
KVEL METAR 2019/11/18 13:53 UTC NOAA

KVEL 181353Z AUTO 30005KT 10SM CLR M04/M09 A3021 RMK AO2 SLP254 T10441089


Station Type Date Time Source
KVEL Decoded METAR 2019/11/18 13:53 UTC NOAA

VERNAL AIRPORT, UT, United States (KVEL) 40-26N 109-30W 1604M
Nov 18, 2019 - 08:53 AM EST / 2019.11.18 1353 UTC
Wind: from the WNW (300 degrees) at 6 MPH (5 KT):0
Visibility: 10 mile(s):0
Sky conditions: clear
Temperature: 24.1 F (-4.4 C)
Windchill: 17 F (-8 C):1
Dew Point: 16.0 F (-8.9 C)
Relative Humidity: 70%
Pressure (altimeter): 30.21 in. Hg (1023 hPa)
ob: KVEL 181353Z AUTO 30005KT 10SM CLR M04/M09 A3021 RMK AO2 SLP254 T10441089
cycle: 14

Station Type Date Time Source
KVEL TAF 2019/11/18 12:24 UTC NOAA

TAF KVEL 181122Z 1812/1912 29004KT P6SM FEW120 SCT250
FM181700 16004KT P6SM SCT250
FM190000 27005KT P6SM SCT250

Example: see airport list